createdAt,value
2022-12-25T00:00:20.734Z,3.92
2022-12-25T00:02:22.593Z,3.08
2022-12-25T00:04:24.063Z,4.22
2022-12-25T00:06:25.942Z,3.20
2022-12-25T00:08:27.331Z,2.80
2022-12-25T00:10:28.719Z,2.83
2022-12-25T00:12:30.137Z,3.65
2022-12-25T00:14:31.592Z,3.65
2022-12-25T00:16:33.047Z,2.83
2022-12-25T00:18:34.794Z,3.22
2022-12-25T00:20:36.269Z,2.72
2022-12-25T00:22:37.632Z,2.97
2022-12-25T00:24:39.059Z,2.95
2022-12-25T00:26:40.486Z,3.05
2022-12-25T00:28:42.336Z,2.80
2022-12-25T00:30:43.814Z,4.00
2022-12-25T00:32:45.267Z,2.92
2022-12-25T00:34:47.823Z,3.47
2022-12-25T00:36:52.568Z,4.25
2022-12-25T00:38:53.950Z,2.72
2022-12-25T00:40:55.354Z,2.72
2022-12-25T00:42:56.768Z,2.92
2022-12-25T00:44:58.262Z,3.30
2022-12-25T00:46:59.733Z,2.78
2022-12-25T00:49:01.802Z,3.63
2022-12-25T00:51:06.394Z,2.88
2022-12-25T00:53:07.766Z,2.80
2022-12-25T00:55:09.371Z,3.20
2022-12-25T00:57:10.754Z,2.83
2022-12-25T00:59:12.979Z,2.63
2022-12-25T01:01:14.621Z,2.63
2022-12-25T01:03:17.725Z,3.15
2022-12-25T01:05:19.166Z,2.92
2022-12-25T01:07:22.031Z,2.85
2022-12-25T01:09:41.719Z,2.80
2022-12-25T01:11:43.865Z,3.00
2022-12-25T01:13:45.279Z,2.38
2022-12-25T01:15:46.669Z,2.40
2022-12-25T01:17:48.116Z,2.63
2022-12-25T01:19:49.546Z,2.92
2022-12-25T01:21:50.916Z,2.88
2022-12-25T01:23:53.055Z,2.83
2022-12-25T01:25:54.433Z,2.55
2022-12-25T01:27:55.829Z,2.10
2022-12-25T01:29:57.248Z,2.45
2022-12-25T01:31:58.745Z,2.75
2022-12-25T01:34:00.172Z,3.10
2022-12-25T01:36:01.630Z,2.38
2022-12-25T01:38:03.016Z,2.33
2022-12-25T01:40:05.336Z,2.78
2022-12-25T01:42:06.713Z,2.83
2022-12-25T01:44:37.013Z,2.85
2022-12-25T01:46:38.455Z,2.38
2022-12-25T01:48:39.965Z,2.13
2022-12-25T01:50:44.770Z,3.05
2022-12-25T01:52:47.795Z,2.30
2022-12-25T01:55:03.988Z,2.60
2022-12-25T01:57:11.854Z,2.70
2022-12-25T01:59:17.632Z,3.33
2022-12-25T02:01:19.258Z,2.50
2022-12-25T02:03:22.416Z,2.13
2022-12-25T02:05:32.129Z,2.53
2022-12-25T02:07:39.966Z,2.60
2022-12-25T02:09:42.435Z,2.40
2022-12-25T02:12:10.403Z,2.83
2022-12-25T02:14:11.926Z,2.75
2022-12-25T02:16:21.023Z,2.50
2022-12-25T02:18:34.616Z,3.10
2022-12-25T02:21:00.778Z,2.30
2022-12-25T02:23:37.813Z,2.20
2022-12-25T02:26:00.375Z,2.72
2022-12-25T02:28:04.639Z,2.65
2022-12-25T02:30:08.616Z,2.30
2022-12-25T02:32:34.750Z,2.63
2022-12-25T02:35:10.793Z,2.33
2022-12-25T02:37:24.323Z,2.13
2022-12-25T02:40:00.445Z,2.85
2022-12-25T02:42:07.731Z,2.55
2022-12-25T02:44:35.043Z,2.40
2022-12-25T02:46:55.312Z,2.58
2022-12-25T02:49:19.683Z,2.78
2022-12-25T02:51:43.015Z,2.85
2022-12-25T02:54:05.789Z,2.50
2022-12-25T02:56:25.973Z,2.28
2022-12-25T02:58:46.722Z,2.10
2022-12-25T03:01:14.207Z,2.30
2022-12-25T03:03:35.116Z,2.42
2022-12-25T03:05:58.415Z,1.95
2022-12-25T03:08:04.412Z,2.20
2022-12-25T03:10:28.000Z,2.30
2022-12-25T03:12:47.503Z,2.55
2022-12-25T03:15:07.702Z,2.53
2022-12-25T03:17:09.411Z,2.58
2022-12-25T03:19:29.546Z,2.47
2022-12-25T03:21:49.452Z,2.20
2022-12-25T03:24:17.388Z,2.25
2022-12-25T03:26:37.690Z,2.22
2022-12-25T03:28:39.077Z,2.42
2022-12-25T03:31:02.097Z,1.83
2022-12-25T03:34:01.105Z,1.90
2022-12-25T03:36:26.763Z,2.08
2022-12-25T03:38:51.812Z,2.03
2022-12-25T03:41:36.981Z,2.00
2022-12-25T03:44:02.784Z,2.10
2022-12-25T03:46:25.702Z,2.25
2022-12-25T03:48:48.742Z,2.58
2022-12-25T03:51:22.090Z,2.00
2022-12-25T03:53:47.323Z,1.92
2022-12-25T03:56:08.912Z,2.20
2022-12-25T03:58:40.920Z,2.22
2022-12-25T04:01:00.725Z,1.88
2022-12-25T04:03:20.904Z,2.20
2022-12-25T04:05:40.988Z,1.98
2022-12-25T04:08:00.823Z,1.90
2022-12-25T04:10:21.210Z,2.20
2022-12-25T04:12:41.555Z,2.13
2022-12-25T04:15:01.391Z,2.38
2022-12-25T04:17:21.228Z,2.33
2022-12-25T04:19:41.214Z,2.20
2022-12-25T04:22:01.249Z,2.00
2022-12-25T04:24:21.193Z,2.55
2022-12-25T04:26:41.560Z,2.10
2022-12-25T04:29:01.570Z,2.08
2022-12-25T04:31:21.492Z,1.92
2022-12-25T04:33:41.767Z,1.90
2022-12-25T04:36:06.257Z,2.13
2022-12-25T04:38:07.709Z,1.67
2022-12-25T04:40:09.764Z,2.40
2022-12-25T04:42:11.228Z,2.00
2022-12-25T04:44:12.684Z,1.85
2022-12-25T04:46:14.226Z,2.10
2022-12-25T04:48:15.685Z,2.13
2022-12-25T04:50:17.215Z,2.22
2022-12-25T04:52:19.321Z,1.63
2022-12-25T04:54:20.784Z,2.00
2022-12-25T04:56:22.880Z,1.95
2022-12-25T04:58:24.353Z,1.65
2022-12-25T05:00:25.860Z,2.17
2022-12-25T05:02:27.463Z,1.80
2022-12-25T05:04:29.091Z,1.83
2022-12-25T05:06:30.479Z,2.30
2022-12-25T05:08:33.478Z,2.08
2022-12-25T05:10:34.975Z,2.20
2022-12-25T05:12:36.497Z,2.33
2022-12-25T05:14:39.147Z,2.03
2022-12-25T05:16:40.584Z,1.55
2022-12-25T05:18:42.217Z,2.13
2022-12-25T05:20:51.439Z,2.03
2022-12-25T05:22:52.890Z,2.20
2022-12-25T05:24:54.308Z,2.05
2022-12-25T05:26:55.723Z,2.10
2022-12-25T05:28:57.269Z,1.30
2022-12-25T05:30:58.876Z,1.85
2022-12-25T05:33:00.453Z,1.52
2022-12-25T05:35:01.961Z,1.80
2022-12-25T05:37:03.475Z,1.73
2022-12-25T05:39:04.940Z,1.85
2022-12-25T05:41:06.468Z,1.95
2022-12-25T05:43:08.321Z,1.35
2022-12-25T05:45:10.371Z,1.52
2022-12-25T05:47:11.840Z,1.40
2022-12-25T05:49:13.393Z,1.60
2022-12-25T05:51:15.008Z,2.78
2022-12-25T05:53:16.525Z,1.90
2022-12-25T05:55:17.961Z,1.33
2022-12-25T05:57:19.474Z,1.90
2022-12-25T05:59:20.944Z,2.42
2022-12-25T06:01:26.306Z,1.55
2022-12-25T06:03:27.991Z,1.90
2022-12-25T06:05:30.544Z,1.55
2022-12-25T06:07:32.035Z,1.90
2022-12-25T06:09:33.462Z,1.70
2022-12-25T06:11:34.908Z,1.52
2022-12-25T06:13:37.430Z,1.70
2022-12-25T06:15:42.144Z,1.85
2022-12-25T06:17:43.590Z,1.50
2022-12-25T06:19:45.113Z,1.23
2022-12-25T06:21:47.033Z,1.52
2022-12-25T06:23:48.821Z,1.40
2022-12-25T06:25:50.284Z,1.20
2022-12-25T06:27:51.724Z,1.15
2022-12-25T06:29:53.392Z,1.27
2022-12-25T06:31:57.286Z,1.20
2022-12-25T06:33:59.157Z,1.35
2022-12-25T06:36:14.164Z,1.20
2022-12-25T06:38:15.621Z,1.58
2022-12-25T06:40:17.051Z,1.30
2022-12-25T06:42:18.540Z,0.98
2022-12-25T06:44:20.012Z,1.80
2022-12-25T06:46:22.694Z,1.48
2022-12-25T06:48:24.167Z,2.28
2022-12-25T06:50:25.676Z,1.45
2022-12-25T06:52:27.115Z,1.55
2022-12-25T06:54:28.591Z,1.15
2022-12-25T06:56:31.193Z,1.00
2022-12-25T06:58:32.935Z,1.17
2022-12-25T07:00:34.352Z,1.20
2022-12-25T07:02:38.405Z,1.15
2022-12-25T07:04:42.203Z,1.05
2022-12-25T07:06:43.767Z,1.38
2022-12-25T07:08:45.228Z,1.10
2022-12-25T07:10:46.683Z,1.25
2022-12-25T07:12:48.116Z,0.90
2022-12-25T07:14:50.216Z,1.25
2022-12-25T07:16:51.939Z,1.20
2022-12-25T07:18:53.797Z,1.40
2022-12-25T07:20:55.847Z,1.10
2022-12-25T07:22:57.371Z,1.40
2022-12-25T07:24:58.756Z,1.40
2022-12-25T07:27:00.201Z,1.25
2022-12-25T07:29:01.690Z,1.30
2022-12-25T07:31:08.074Z,1.42
2022-12-25T07:33:09.525Z,1.25
2022-12-25T07:35:10.978Z,1.30
2022-12-25T07:37:13.089Z,1.40
2022-12-25T07:39:14.543Z,1.40
2022-12-25T07:41:16.429Z,1.38
2022-12-25T07:43:17.982Z,1.40
2022-12-25T07:45:19.458Z,1.40
2022-12-25T07:47:24.959Z,1.50
2022-12-25T07:49:26.361Z,1.48
2022-12-25T07:51:30.096Z,1.50
2022-12-25T07:53:32.146Z,1.42
2022-12-25T07:55:33.604Z,1.55
2022-12-25T07:57:36.384Z,1.58
2022-12-25T07:59:37.806Z,1.80
2022-12-25T08:01:39.397Z,1.40
2022-12-25T08:03:41.091Z,2.00
2022-12-25T08:05:42.636Z,1.90
2022-12-25T08:07:44.086Z,1.88
2022-12-25T08:09:45.612Z,1.58
2022-12-25T08:11:47.660Z,1.75
2022-12-25T08:13:49.108Z,1.88
2022-12-25T08:15:50.686Z,1.67
2022-12-25T08:17:52.108Z,1.60
2022-12-25T08:19:53.557Z,2.00
2022-12-25T08:21:55.936Z,1.60
2022-12-25T08:23:57.400Z,1.77
2022-12-25T08:26:05.071Z,1.70
2022-12-25T08:28:07.507Z,1.88
2022-12-25T08:30:09.324Z,2.10
2022-12-25T08:32:10.848Z,2.10
2022-12-25T08:34:12.595Z,2.10
2022-12-25T08:36:14.721Z,2.35
2022-12-25T08:38:16.134Z,1.80
2022-12-25T08:40:17.609Z,2.70
2022-12-25T08:42:19.063Z,2.30
2022-12-25T08:44:20.588Z,1.67
2022-12-25T08:46:22.199Z,1.77
2022-12-25T08:48:23.787Z,1.83
2022-12-25T08:50:25.679Z,2.00
2022-12-25T08:52:28.711Z,1.60
2022-12-25T08:54:32.422Z,2.22
2022-12-25T08:56:33.857Z,1.85
2022-12-25T08:58:36.028Z,1.83
2022-12-25T09:00:37.762Z,1.95
2022-12-25T09:02:39.329Z,1.65
2022-12-25T09:04:40.891Z,1.70
2022-12-25T09:06:42.292Z,1.50
2022-12-25T09:08:49.290Z,2.22
2022-12-25T09:10:51.332Z,1.83
2022-12-25T09:12:52.763Z,1.73
2022-12-25T09:14:54.278Z,1.85
2022-12-25T09:16:55.721Z,1.52
2022-12-25T09:19:00.099Z,1.73
2022-12-25T09:21:04.063Z,1.60
2022-12-25T09:23:11.612Z,2.03
2022-12-25T09:25:15.181Z,1.95
2022-12-25T09:27:16.613Z,1.90
2022-12-25T09:29:18.154Z,1.73
2022-12-25T09:31:21.692Z,6.65
2022-12-25T09:33:26.148Z,3.17
2022-12-25T09:35:27.580Z,1.90
2022-12-25T09:37:29.237Z,2.17
2022-12-25T09:39:30.716Z,2.05
2022-12-25T09:41:53.899Z,1.90
2022-12-25T09:43:58.174Z,1.73
2022-12-25T09:46:02.285Z,2.30
2022-12-25T09:48:04.605Z,2.25
2022-12-25T09:50:14.836Z,2.30
2022-12-25T09:52:45.567Z,2.25
2022-12-25T09:54:56.582Z,2.17
2022-12-25T09:56:58.015Z,1.90
2022-12-25T09:58:59.499Z,2.20
2022-12-25T10:01:14.211Z,2.35
2022-12-25T10:03:38.313Z,2.17
2022-12-25T10:06:08.621Z,1.92
2022-12-25T10:08:34.930Z,2.33
2022-12-25T10:10:59.844Z,2.28
2022-12-25T10:13:19.194Z,1.63
2022-12-25T10:15:39.156Z,2.10
2022-12-25T10:18:00.687Z,1.60
2022-12-25T10:20:20.230Z,2.08
2022-12-25T10:25:02.500Z,2.03
2022-12-25T10:27:13.642Z,1.63
2022-12-25T10:29:19.380Z,1.90
2022-12-25T10:31:24.495Z,1.73
2022-12-25T10:33:26.055Z,2.20
2022-12-25T10:35:29.947Z,1.70
2022-12-25T10:37:31.454Z,1.70
2022-12-25T10:39:32.898Z,2.17
2022-12-25T10:41:53.357Z,2.05
2022-12-25T10:43:56.924Z,1.80
2022-12-25T10:45:58.700Z,1.92
2022-12-25T10:48:07.419Z,1.80
2022-12-25T10:50:09.657Z,1.80
2022-12-25T10:52:26.216Z,1.67
2022-12-25T10:54:33.363Z,1.60
2022-12-25T10:56:34.776Z,1.50
2022-12-25T10:58:36.207Z,1.65
2022-12-25T11:00:37.675Z,1.25
2022-12-25T11:02:40.705Z,1.40
2022-12-25T11:04:42.902Z,1.42
2022-12-25T11:06:44.420Z,1.38
2022-12-25T11:08:52.888Z,1.30
2022-12-25T11:10:57.905Z,1.52
2022-12-25T11:13:00.435Z,1.48
2022-12-25T11:15:27.203Z,1.50
2022-12-25T11:17:28.669Z,0.95
2022-12-25T11:19:32.496Z,1.35
2022-12-25T11:21:36.651Z,1.33
2022-12-25T11:23:44.808Z,1.40
2022-12-25T11:26:02.572Z,2.00
2022-12-25T11:28:05.885Z,1.40
2022-12-25T11:30:15.859Z,1.65
2022-12-25T11:32:31.289Z,1.52
2022-12-25T11:34:38.320Z,1.40
2022-12-25T11:36:47.859Z,1.38
2022-12-25T11:38:50.827Z,1.40
2022-12-25T11:40:55.961Z,1.55
2022-12-25T11:43:09.162Z,1.42
2022-12-25T11:47:25.626Z,1.60
2022-12-25T11:49:28.941Z,1.25
2022-12-25T11:51:35.302Z,1.15
2022-12-25T11:53:41.137Z,1.00
2022-12-25T11:55:57.060Z,1.38
2022-12-25T11:58:04.317Z,1.60
2022-12-25T12:00:10.108Z,0.82
2022-12-25T12:02:36.401Z,1.02
2022-12-25T12:04:43.469Z,1.02
2022-12-25T12:06:55.575Z,1.05
2022-12-25T12:09:19.403Z,1.27
2022-12-25T12:11:36.825Z,1.20
2022-12-25T12:13:46.359Z,1.08
2022-12-25T12:15:49.448Z,1.00
2022-12-25T12:17:50.861Z,1.40
2022-12-25T12:19:52.718Z,0.95
2022-12-25T12:21:59.466Z,1.00
2022-12-25T12:24:18.630Z,1.20
2022-12-25T12:26:25.939Z,1.38
2022-12-25T12:28:33.141Z,1.10
2022-12-25T12:30:35.522Z,1.13
2022-12-25T12:32:44.344Z,1.10
2022-12-25T12:34:50.038Z,1.13
2022-12-25T12:37:00.960Z,1.48
2022-12-25T12:39:02.661Z,1.50
2022-12-25T12:41:07.537Z,1.35
2022-12-25T12:43:53.006Z,0.95
2022-12-25T12:45:57.681Z,1.00
2022-12-25T12:47:59.321Z,1.00
2022-12-25T12:50:01.871Z,1.15
2022-12-25T12:52:30.180Z,1.15
2022-12-25T12:54:31.710Z,1.42
2022-12-25T12:56:33.070Z,1.30
2022-12-25T12:58:37.775Z,1.50
2022-12-25T13:00:49.926Z,1.33
2022-12-25T13:03:28.492Z,1.27
2022-12-25T13:06:11.492Z,1.60
2022-12-25T13:08:34.680Z,1.95
2022-12-25T13:10:38.892Z,1.80
2022-12-25T13:12:40.373Z,2.50
2022-12-25T13:14:46.445Z,2.15
2022-12-25T13:16:51.791Z,2.28
2022-12-25T13:18:55.358Z,2.28
2022-12-25T13:21:05.631Z,2.40
2022-12-25T13:23:29.482Z,2.30
2022-12-25T13:25:30.859Z,2.00
2022-12-25T13:27:33.779Z,2.25
2022-12-25T13:29:38.064Z,2.58
2022-12-25T13:31:40.827Z,2.42
2022-12-25T13:33:51.726Z,2.50
2022-12-25T13:35:53.621Z,2.40
2022-12-25T13:37:56.173Z,2.40
2022-12-25T13:40:00.058Z,2.60
2022-12-25T13:42:10.938Z,2.70
2022-12-25T13:44:26.074Z,3.28
2022-12-25T13:46:27.800Z,3.40
2022-12-25T13:48:30.033Z,3.28
2022-12-25T13:50:33.256Z,3.13
2022-12-25T13:52:37.515Z,2.92
2022-12-25T13:54:39.893Z,3.03
2022-12-25T13:56:51.629Z,3.17
2022-12-25T13:58:53.110Z,3.30
2022-12-25T14:00:58.212Z,3.17
2022-12-25T14:03:00.535Z,3.53
2022-12-25T14:05:02.923Z,3.67
2022-12-25T14:07:12.091Z,3.78
2022-12-25T14:09:14.321Z,3.92
2022-12-25T14:11:18.120Z,4.07
2022-12-25T14:13:22.395Z,3.47
2022-12-25T14:15:24.367Z,4.00
2022-12-25T14:17:26.046Z,3.92
2022-12-25T14:19:30.219Z,4.15
2022-12-25T14:21:34.916Z,3.72
2022-12-25T14:23:46.492Z,4.03
2022-12-25T14:25:48.196Z,4.03
2022-12-25T14:27:52.252Z,4.15
2022-12-25T14:29:58.535Z,3.65
2022-12-25T14:32:04.541Z,4.07
2022-12-25T14:34:13.532Z,4.10
2022-12-25T14:36:15.010Z,4.90
2022-12-25T14:38:34.796Z,4.32
2022-12-25T14:40:36.222Z,3.97
2022-12-25T14:42:37.581Z,4.53
2022-12-25T14:44:40.911Z,4.57
2022-12-25T14:46:42.385Z,4.15
2022-12-25T14:48:43.871Z,4.15
2022-12-25T14:50:58.929Z,4.35
2022-12-25T14:53:00.681Z,4.20
2022-12-25T14:55:06.237Z,4.40
2022-12-25T14:57:14.812Z,3.85
2022-12-25T14:59:20.443Z,3.88
2022-12-25T15:01:29.348Z,5.07
2022-12-25T15:03:35.068Z,4.13
2022-12-25T15:05:38.861Z,4.60
2022-12-25T15:07:40.599Z,4.45
2022-12-25T15:09:42.002Z,3.90
2022-12-25T15:11:43.410Z,5.25
2022-12-25T15:13:44.794Z,4.07
2022-12-25T15:16:04.094Z,4.28
2022-12-25T15:20:10.447Z,4.07
2022-12-25T15:22:13.194Z,4.07
2022-12-25T15:24:15.125Z,4.05
2022-12-25T15:26:16.560Z,3.60
2022-12-25T15:28:18.104Z,3.80
2022-12-25T15:30:19.645Z,4.03
2022-12-25T15:32:23.309Z,4.05
2022-12-25T15:34:24.736Z,4.07
2022-12-25T15:36:27.018Z,3.92
2022-12-25T15:38:28.452Z,4.70
2022-12-25T15:40:29.830Z,4.07
2022-12-25T15:42:31.211Z,3.35
2022-12-25T15:44:32.623Z,4.00
2022-12-25T15:46:34.688Z,4.53
2022-12-25T15:48:36.192Z,4.55
2022-12-25T15:50:37.631Z,4.40
2022-12-25T15:52:39.024Z,4.25
2022-12-25T15:54:40.475Z,4.57
2022-12-25T15:56:45.007Z,4.10
2022-12-25T15:58:46.408Z,4.18
2022-12-25T16:00:47.843Z,4.10
2022-12-25T16:02:50.090Z,3.85
2022-12-25T16:04:54.320Z,3.80
2022-12-25T16:06:56.173Z,4.20
2022-12-25T16:08:57.604Z,3.90
2022-12-25T16:10:59.013Z,3.90
2022-12-25T16:13:00.413Z,4.05
2022-12-25T16:15:01.848Z,4.10
2022-12-25T16:17:04.313Z,4.30
2022-12-25T16:19:08.345Z,3.97
2022-12-25T16:21:14.306Z,5.30
2022-12-25T16:23:15.749Z,5.15
2022-12-25T16:25:19.050Z,5.60
2022-12-25T16:27:21.360Z,4.82
2022-12-25T16:29:22.768Z,5.03
2022-12-25T16:31:24.192Z,5.43
2022-12-25T16:33:26.230Z,5.55
2022-12-25T16:35:27.754Z,4.95
2022-12-25T16:37:29.291Z,4.95
2022-12-25T16:39:30.956Z,4.13
2022-12-25T16:41:32.506Z,4.85
2022-12-25T16:43:33.956Z,4.22
2022-12-25T16:46:11.473Z,4.28
2022-12-25T16:48:13.694Z,4.47
2022-12-25T16:50:16.277Z,4.45
2022-12-25T16:52:17.723Z,4.47
2022-12-25T16:54:19.125Z,4.53
2022-12-25T16:56:21.051Z,4.53
2022-12-25T16:58:22.444Z,5.18
2022-12-25T17:00:23.818Z,5.20
2022-12-25T17:02:25.560Z,3.90
2022-12-25T17:04:27.826Z,4.93
2022-12-25T17:06:29.579Z,3.88
2022-12-25T17:08:33.398Z,3.72
2022-12-25T17:10:38.458Z,4.03
2022-12-25T17:12:39.888Z,3.97
2022-12-25T17:14:41.445Z,3.60
2022-12-25T17:16:42.942Z,4.40
2022-12-25T17:18:45.019Z,4.20
2022-12-25T17:20:53.527Z,3.88
2022-12-25T17:22:54.998Z,4.25
2022-12-25T17:24:59.530Z,3.72
2022-12-25T17:27:01.710Z,3.58
2022-12-25T17:29:03.630Z,3.40
2022-12-25T17:31:10.993Z,3.60
2022-12-25T17:33:12.432Z,3.40
2022-12-25T17:35:17.734Z,3.33
2022-12-25T17:37:19.243Z,3.10
2022-12-25T17:39:20.651Z,3.60
2022-12-25T17:41:22.044Z,3.40
2022-12-25T17:43:23.583Z,3.72
2022-12-25T17:45:25.220Z,3.50
2022-12-25T17:47:26.656Z,3.85
2022-12-25T17:49:28.033Z,3.53
2022-12-25T17:51:30.782Z,3.90
2022-12-25T17:53:34.534Z,3.58
2022-12-25T17:55:41.049Z,3.85
2022-12-25T17:57:42.425Z,3.67
2022-12-25T17:59:43.952Z,3.58
2022-12-25T18:01:46.850Z,3.58
2022-12-25T18:03:49.221Z,4.35
2022-12-25T18:05:50.617Z,4.32
2022-12-25T18:07:52.529Z,3.47
2022-12-25T18:09:53.920Z,5.50
2022-12-25T18:11:55.709Z,5.13
2022-12-25T18:13:58.181Z,5.57
2022-12-25T18:16:07.494Z,4.65
2022-12-25T18:18:09.467Z,3.33
2022-12-25T18:20:11.344Z,3.83
2022-12-25T18:22:12.791Z,3.53
2022-12-25T18:24:14.264Z,3.58
2022-12-25T18:26:15.779Z,3.30
2022-12-25T18:28:17.249Z,3.63
2022-12-25T18:30:19.929Z,3.40
2022-12-25T18:32:27.874Z,3.33
2022-12-25T18:34:30.359Z,3.55
2022-12-25T18:36:32.860Z,3.70
2022-12-25T18:38:35.475Z,3.30
2022-12-25T18:40:56.049Z,3.33
2022-12-25T18:43:51.571Z,2.88
2022-12-25T18:45:44.388Z,3.97
2022-12-25T18:47:46.371Z,3.67
2022-12-25T18:49:48.499Z,4.32
2022-12-25T18:51:50.106Z,4.10
2022-12-25T18:53:51.772Z,4.10
2022-12-25T18:55:58.129Z,3.88
2022-12-25T18:57:59.619Z,3.63
2022-12-25T19:00:02.815Z,4.32
2022-12-25T19:02:04.378Z,3.78
2022-12-25T19:04:06.135Z,3.15
2022-12-25T19:06:07.879Z,3.28
2022-12-25T19:08:09.389Z,3.55
2022-12-25T19:10:10.814Z,3.65
2022-12-25T19:12:12.190Z,3.28
2022-12-25T19:14:13.892Z,4.43
2022-12-25T19:16:16.089Z,3.35
2022-12-25T19:18:17.642Z,2.70
2022-12-25T19:20:19.920Z,3.13
2022-12-25T19:22:22.371Z,3.47
2022-12-25T19:24:25.026Z,3.45
2022-12-25T19:26:26.425Z,3.42
2022-12-25T19:28:27.902Z,3.40
2022-12-25T19:30:29.331Z,3.75
2022-12-25T19:32:30.962Z,4.00
2022-12-25T19:34:32.395Z,4.80
2022-12-25T19:36:34.470Z,3.67
2022-12-25T19:38:36.535Z,3.97
2022-12-25T19:40:39.873Z,3.65
2022-12-25T19:42:41.285Z,3.30
2022-12-25T19:44:44.266Z,3.55
2022-12-25T19:46:45.768Z,3.70
2022-12-25T19:48:47.842Z,4.03
2022-12-25T19:50:49.661Z,4.10
2022-12-25T19:52:51.054Z,3.70
2022-12-25T19:54:52.624Z,2.85
2022-12-25T19:56:54.018Z,3.38
2022-12-25T19:58:56.402Z,3.28
2022-12-25T20:01:05.081Z,3.33
2022-12-25T20:03:06.610Z,3.80
2022-12-25T20:05:08.388Z,4.10
2022-12-25T20:07:09.773Z,3.38
2022-12-25T20:09:20.866Z,3.35
2022-12-25T20:11:25.946Z,3.47
2022-12-25T20:13:27.366Z,3.53
2022-12-25T20:15:28.909Z,3.42
2022-12-25T20:17:30.317Z,3.45
2022-12-25T20:19:31.781Z,3.72
2022-12-25T20:21:33.239Z,3.70
2022-12-25T20:23:34.994Z,3.70
2022-12-25T20:25:42.627Z,4.35
2022-12-25T20:27:44.021Z,3.83
2022-12-25T20:29:45.484Z,4.00
2022-12-25T20:31:46.957Z,4.25
2022-12-25T20:33:48.595Z,4.13
2022-12-25T20:35:50.438Z,3.67
2022-12-25T20:37:52.525Z,3.97
2022-12-25T20:40:01.381Z,4.10
2022-12-25T20:42:02.888Z,3.70
2022-12-25T20:44:06.337Z,3.90
2022-12-25T20:46:08.075Z,4.80
2022-12-25T20:48:09.522Z,4.20
2022-12-25T20:50:10.985Z,4.00
2022-12-25T20:52:12.396Z,4.35
2022-12-25T20:54:14.805Z,4.82
2022-12-25T20:56:18.664Z,4.18
2022-12-25T20:58:20.099Z,4.97
2022-12-25T21:00:22.162Z,4.03
2022-12-25T21:02:35.740Z,4.53
2022-12-25T21:04:38.144Z,4.60
2022-12-25T21:06:39.584Z,4.40
2022-12-25T21:08:41.267Z,4.10
2022-12-25T21:10:45.198Z,4.63
2022-12-25T21:12:46.616Z,4.85
2022-12-25T21:14:48.071Z,4.25
2022-12-25T21:16:50.050Z,4.32
2022-12-25T21:21:22.209Z,4.18
2022-12-25T21:23:26.515Z,4.63
2022-12-25T21:25:27.934Z,4.07
2022-12-25T21:27:29.816Z,4.38
2022-12-25T21:29:31.257Z,4.32
2022-12-25T21:31:53.345Z,4.82
2022-12-25T21:33:55.723Z,4.68
2022-12-25T21:36:04.926Z,4.18
2022-12-25T21:38:06.438Z,4.63
2022-12-25T21:40:12.882Z,4.80
2022-12-25T21:42:17.650Z,4.22
2022-12-25T21:44:19.104Z,5.00
2022-12-25T21:46:21.052Z,4.32
2022-12-25T21:48:22.537Z,4.45
2022-12-25T21:50:42.809Z,4.18
2022-12-25T21:52:44.274Z,4.13
2022-12-25T21:54:46.092Z,4.40
2022-12-25T21:56:48.396Z,4.30
2022-12-25T21:58:50.111Z,4.75
2022-12-25T22:00:52.146Z,4.32
2022-12-25T22:02:53.806Z,4.28
2022-12-25T22:04:55.717Z,4.18
2022-12-25T22:07:15.690Z,5.38
2022-12-25T22:09:17.130Z,5.13
2022-12-25T22:11:37.521Z,5.07
2022-12-25T22:13:57.750Z,4.35
2022-12-25T22:16:24.359Z,4.88
2022-12-25T22:18:44.640Z,4.15
2022-12-25T22:20:46.134Z,4.75
2022-12-25T22:22:47.667Z,5.20
2022-12-25T22:24:54.062Z,5.07
2022-12-25T22:26:55.443Z,4.68
2022-12-25T22:28:56.889Z,2.13
2022-12-25T22:30:58.331Z,3.50
2022-12-25T22:32:59.900Z,2.17
2022-12-25T22:35:01.633Z,1.15
2022-12-25T22:37:04.208Z,1.42
2022-12-25T22:39:05.691Z,1.30
2022-12-25T22:41:07.775Z,0.85
2022-12-25T22:43:09.172Z,1.08
2022-12-25T22:45:11.474Z,1.50
2022-12-25T22:47:12.881Z,1.33
2022-12-25T22:49:16.302Z,1.20
2022-12-25T22:51:17.723Z,1.40
2022-12-25T22:53:19.386Z,1.70
2022-12-25T22:55:20.842Z,1.52
2022-12-25T22:57:22.265Z,1.73
2022-12-25T22:59:24.027Z,1.27
2022-12-25T23:01:25.564Z,1.50
2022-12-25T23:03:27.210Z,1.48
2022-12-25T23:05:28.619Z,1.33
2022-12-25T23:07:30.048Z,1.50
2022-12-25T23:09:31.414Z,1.25
2022-12-25T23:11:33.984Z,1.02
2022-12-25T23:13:54.239Z,1.02
2022-12-25T23:15:55.701Z,1.02
2022-12-25T23:18:15.972Z,1.13
2022-12-25T23:20:35.661Z,1.10
2022-12-25T23:22:55.441Z,1.27
2022-12-25T23:25:16.821Z,1.25
2022-12-25T23:27:18.252Z,1.33
2022-12-25T23:29:37.650Z,1.08
2022-12-25T23:33:42.303Z,1.08
2022-12-25T23:35:43.726Z,1.20
2022-12-25T23:37:46.562Z,1.10
2022-12-25T23:39:49.934Z,1.15
2022-12-25T23:41:51.359Z,1.20
2022-12-25T23:43:52.766Z,1.33
2022-12-25T23:45:54.106Z,0.90
2022-12-25T23:47:55.528Z,1.17
2022-12-25T23:49:56.931Z,1.10
2022-12-25T23:51:58.513Z,1.00
2022-12-25T23:54:00.040Z,1.40
2022-12-25T23:56:01.659Z,1.25
2022-12-25T23:58:03.218Z,1.20
